Time;durP1;ratioP1;P1;durP2;ratioP2;P2;SDS_P1;SDS_P2;PMS_P1;PMS_P2;Temp;Humidity;BMP_temperature;BMP_pressure;BME280_temperature;BME280_humidity;BME280_pressure;Samples;Min_cycle;Max_cycle;Signal;HPM_P1;HPM_P2
2023/06/12 00:00:51;;;;;;;8.95;3.75;;;;;;;16.69;72.58;93419.31;5003408;28;20037;-76
2023/06/12 00:03:17;;;;;;;9.27;3.80;;;;;;;16.67;72.72;93423.47;5003401;28;20328;-77
2023/06/12 00:05:43;;;;;;;8.00;3.85;;;;;;;16.61;73.27;93423.78;5003554;28;20014;-77
2023/06/12 00:08:13;;;;;;;9.98;3.97;;;;;;;16.61;73.35;93418.41;5003312;28;20313;-77
2023/06/12 00:10:42;;;;;;;6.75;3.80;;;;;;;16.65;73.68;93424.63;5003447;28;20049;-77
2023/06/12 00:13:09;;;;;;;7.97;3.95;;;;;;;16.71;73.63;93429.69;5002967;28;20061;-77
2023/06/12 00:15:35;;;;;;;6.68;3.58;;;;;;;16.73;73.22;93428.22;5003411;28;20026;-77
2023/06/12 00:18:01;;;;;;;10.25;4.18;;;;;;;16.76;73.20;93421.31;5003256;28;20347;-77
2023/06/12 00:20:27;;;;;;;8.45;4.28;;;;;;;16.79;73.65;93424.06;5003505;28;20026;-77
2023/06/12 00:22:53;;;;;;;13.50;4.20;;;;;;;16.81;73.75;93429.91;5003273;28;20026;-77
2023/06/12 00:25:18;;;;;;;8.50;4.35;;;;;;;16.82;73.83;93425.28;5003110;28;20034;-78
2023/06/12 00:27:44;;;;;;;10.65;4.43;;;;;;;16.79;74.47;93424.06;5003098;28;20030;-77
2023/06/12 00:30:10;;;;;;;10.68;4.13;;;;;;;16.82;75.08;93417.97;4985843;28;20026;-77
2023/06/12 00:32:35;;;;;;;9.40;4.57;;;;;;;16.80;75.00;93419.44;5003245;28;20045;-77
2023/06/12 00:35:01;;;;;;;10.13;4.07;;;;;;;16.77;74.43;93414.78;4985837;28;20307;-77
2023/06/12 00:37:27;;;;;;;9.02;4.60;;;;;;;16.78;74.49;93424.41;5003299;28;20014;-78
2023/06/12 00:39:53;;;;;;;8.98;4.20;;;;;;;16.77;74.73;93414.78;5002935;28;20085;-78
2023/06/12 00:42:20;;;;;;;10.73;3.90;;;;;;;16.80;74.40;93424.84;5003046;28;20312;-77
2023/06/12 00:44:45;;;;;;;9.48;3.88;;;;;;;16.81;74.35;93426.41;5003079;28;20160;-77
2023/06/12 00:47:11;;;;;;;8.68;4.13;;;;;;;16.82;74.56;93417.19;5003101;28;20030;-77
2023/06/12 00:49:37;;;;;;;7.40;4.18;;;;;;;16.87;74.16;93419.56;5002988;28;20245;-78
2023/06/12 00:52:03;;;;;;;6.25;4.03;;;;;;;16.87;74.29;93424.94;4986353;28;20029;-78
2023/06/12 00:54:29;;;;;;;10.98;4.18;;;;;;;16.89;73.94;93421.91;4989665;28;20097;-78
2023/06/12 00:56:56;;;;;;;11.68;4.53;;;;;;;16.93;73.92;93423.50;5006840;28;20209;-77
2023/06/12 00:59:22;;;;;;;8.73;3.97;;;;;;;16.97;73.71;93418.94;5006676;28;20022;-77
2023/06/12 01:01:48;;;;;;;7.80;4.00;;;;;;;16.93;74.05;93410.03;5006722;28;20053;-77
2023/06/12 01:04:14;;;;;;;7.18;4.55;;;;;;;16.91;74.27;93414.25;5006710;28;20216;-78
2023/06/12 01:06:59;;;;;;;7.97;4.50;;;;;;;16.91;74.39;93415.00;5006666;28;20030;-78
2023/06/12 01:09:30;;;;;;;6.78;3.97;;;;;;;16.95;74.22;93415.06;5006461;28;20030;-77
2023/06/12 01:11:56;;;;;;;10.90;5.10;;;;;;;16.96;74.26;93422.03;5006513;28;20046;-76
2023/06/12 01:14:22;;;;;;;11.38;5.13;;;;;;;16.99;74.89;93410.50;4989140;28;20034;-77
2023/06/12 01:16:47;;;;;;;7.32;4.35;;;;;;;17.02;74.79;93409.78;5006509;28;20030;-77
2023/06/12 01:19:19;;;;;;;12.30;4.97;;;;;;;17.04;75.15;93407.50;5006448;28;20359;-77
2023/06/12 01:21:50;;;;;;;9.30;4.88;;;;;;;17.07;75.07;93414.06;5006358;28;20037;-76
2023/06/12 01:24:29;;;;;;;9.95;4.47;;;;;;;17.05;74.75;93411.75;5006459;28;20030;-77
2023/06/12 01:27:08;;;;;;;13.40;4.60;;;;;;;17.04;75.17;93410.97;5006243;28;20045;-77
2023/06/12 01:29:48;;;;;;;10.45;5.57;;;;;;;17.06;75.67;93416.00;5006451;28;20030;-76
2023/06/12 01:32:15;;;;;;;13.45;4.53;;;;;;;17.08;76.29;93418.34;5006212;28;20040;-76
2023/06/12 01:34:54;;;;;;;11.02;4.63;;;;;;;17.11;76.28;93404.13;5006178;28;20019;-76
2023/06/12 01:37:51;;;;;;;8.80;4.53;;;;;;;17.14;76.41;93422.25;5006193;28;20223;-77
2023/06/12 01:40:19;;;;;;;9.73;4.80;;;;;;;17.15;76.64;93413.03;4992193;28;20375;-78
2023/06/12 01:42:45;;;;;;;7.72;4.45;;;;;;;17.15;76.97;93415.72;5006031;28;20089;-76
2023/06/12 01:45:10;;;;;;;11.20;4.70;;;;;;;17.17;77.20;93418.81;5005814;28;20049;-77
2023/06/12 01:47:36;;;;;;;7.60;4.15;;;;;;;17.20;77.14;93418.13;5005688;28;20097;-77
2023/06/12 01:50:05;;;;;;;9.07;4.72;;;;;;;17.21;77.02;93417.72;5005807;28;20026;-76
2023/06/12 01:52:32;;;;;;;14.57;5.03;;;;;;;17.20;76.41;93407.34;5005659;28;20068;-76
2023/06/12 01:54:59;;;;;;;13.50;4.60;;;;;;;17.20;76.12;93410.81;5005914;28;20275;-77
2023/06/12 01:57:25;;;;;;;10.85;4.40;;;;;;;17.21;76.26;93406.94;5005852;28;20018;-77
2023/06/12 01:59:54;;;;;;;11.35;4.65;;;;;;;17.21;76.18;93417.72;5005596;28;20382;-78
2023/06/12 02:02:20;;;;;;;12.52;6.32;;;;;;;17.23;76.11;93415.44;5005732;28;20033;-78
2023/06/12 02:04:46;;;;;;;15.88;4.63;;;;;;;17.24;76.45;93418.94;5005431;28;20027;-78
2023/06/12 02:07:12;;;;;;;12.50;4.57;;;;;;;17.20;77.00;93416.19;5005466;28;20087;-78
2023/06/12 02:09:37;;;;;;;9.75;5.00;;;;;;;17.19;76.88;93419.25;5005479;28;20388;-78
2023/06/12 02:12:03;;;;;;;9.27;4.63;;;;;;;17.17;76.53;93419.59;5004677;28;20100;-78
2023/06/12 02:14:29;;;;;;;15.55;5.85;;;;;;;17.20;76.62;93420.81;5005380;28;20223;-78
2023/06/12 02:16:55;;;;;;;12.02;5.38;;;;;;;17.20;77.33;93423.50;5004254;28;20023;-78
2023/06/12 02:19:22;;;;;;;7.30;4.65;;;;;;;17.21;77.50;93419.66;5004457;28;20033;-79
2023/06/12 02:21:49;;;;;;;7.97;4.93;;;;;;;17.17;77.61;93418.81;5004020;28;20216;-79
2023/06/12 02:24:15;;;;;;;8.15;5.72;;;;;;;17.14;77.08;93431.09;5004834;28;20042;-79
2023/06/12 02:26:41;;;;;;;9.25;4.53;;;;;;;17.08;76.74;93439.88;5005052;28;20018;-80
2023/06/12 02:29:13;;;;;;;13.18;5.22;;;;;;;17.08;76.30;93439.88;5005204;28;20358;-79
2023/06/12 02:31:39;;;;;;;11.77;5.13;;;;;;;16.98;76.00;93435.88;5004908;28;20193;-79
2023/06/12 02:34:04;;;;;;;11.10;4.38;;;;;;;16.95;76.55;93437.38;4987691;28;20034;-79
2023/06/12 02:36:30;;;;;;;9.77;5.25;;;;;;;16.88;76.93;93437.28;5005260;28;20026;-80
2023/06/12 02:38:56;;;;;;;9.45;4.63;;;;;;;16.86;77.48;93436.88;5005143;28;20041;-80
2023/06/12 02:41:23;;;;;;;8.43;5.03;;;;;;;16.87;77.53;93443.03;5004921;28;20026;-80
2023/06/12 02:43:48;;;;;;;10.80;4.63;;;;;;;16.90;77.89;93440.38;5004721;28;20280;-80
2023/06/12 02:46:14;;;;;;;12.70;5.57;;;;;;;16.91;78.27;93436.53;5004898;28;20030;-80
2023/06/12 02:48:39;;;;;;;12.02;5.18;;;;;;;16.94;78.59;93441.22;4987369;28;20034;-79
2023/06/12 02:51:05;;;;;;;11.10;5.25;;;;;;;16.97;78.44;93440.47;5004787;28;20026;-81
2023/06/12 02:53:31;;;;;;;8.55;5.03;;;;;;;16.99;78.71;93435.50;5004706;28;20030;-81
2023/06/12 02:55:56;;;;;;;9.48;4.68;;;;;;;17.04;78.89;93451.34;5004756;28;20034;-81
2023/06/12 02:58:22;;;;;;;7.25;4.53;;;;;;;17.07;78.72;93449.06;5004404;28;20022;-78
2023/06/12 03:00:47;;;;;;;12.07;5.75;;;;;;;17.07;78.50;93454.47;4987233;28;20080;-78
2023/06/12 03:03:14;;;;;;;12.52;4.80;;;;;;;17.05;78.72;93458.28;5004662;28;20064;-79
2023/06/12 03:05:41;;;;;;;12.45;4.72;;;;;;;17.10;78.83;93451.06;5004459;28;20026;-79
2023/06/12 03:08:08;;;;;;;8.15;5.07;;;;;;;17.08;79.00;93461.41;4986977;28;20088;-79
2023/06/12 03:10:34;;;;;;;13.13;5.75;;;;;;;17.08;79.21;93456.03;5004443;28;20030;-79
2023/06/12 03:13:00;;;;;;;9.48;5.50;;;;;;;17.09;79.13;93462.94;5004238;28;20375;-79
2023/06/12 03:15:26;;;;;;;10.52;4.93;;;;;;;17.10;78.64;93464.53;4986538;28;20049;-78
2023/06/12 03:17:52;;;;;;;10.73;5.80;;;;;;;17.12;78.38;93452.25;5004222;28;20027;-78
2023/06/12 03:20:17;;;;;;;14.25;5.22;;;;;;;17.14;78.63;93458.03;5004301;28;20093;-78
2023/06/12 03:22:43;;;;;;;10.35;5.82;;;;;;;17.17;78.65;93453.84;5004145;28;20026;-78
2023/06/12 03:25:10;;;;;;;14.27;5.72;;;;;;;17.19;78.34;93462.31;5004075;28;20026;-78
2023/06/12 03:27:36;;;;;;;10.07;5.72;;;;;;;17.20;78.25;93464.66;5003720;28;20030;-78
2023/06/12 03:30:03;;;;;;;14.00;5.60;;;;;;;17.21;78.62;93460.03;5004108;28;20030;-79
2023/06/12 03:32:29;;;;;;;29.08;6.22;;;;;;;17.20;78.74;93453.88;5004017;28;20099;-79
2023/06/12 03:34:55;;;;;;;13.02;6.03;;;;;;;17.22;78.87;93456.22;5004018;28;20029;-80
2023/06/12 03:37:23;;;;;;;12.90;4.65;;;;;;;17.24;79.24;93454.72;5003814;28;20068;-78
2023/06/12 03:39:49;;;;;;;16.52;5.78;;;;;;;17.23;78.87;93457.75;5003839;28;20202;-78
2023/06/12 03:42:15;;;;;;;8.35;5.63;;;;;;;17.27;77.94;93458.59;5003832;28;20072;-78
2023/06/12 03:44:40;;;;;;;13.70;6.22;;;;;;;17.26;77.32;93451.66;5003828;28;20026;-80
2023/06/12 03:47:06;;;;;;;10.75;5.25;;;;;;;17.25;77.33;93450.88;5003528;28;20068;-78
2023/06/12 03:49:32;;;;;;;13.20;6.22;;;;;;;17.20;77.19;93448.50;5003771;28;20065;-78
2023/06/12 03:51:57;;;;;;;12.50;5.78;;;;;;;17.24;77.86;93457.41;5003799;28;20038;-78
2023/06/12 03:54:23;;;;;;;13.30;6.10;;;;;;;17.22;77.51;93454.31;5003768;28;20029;-78
2023/06/12 03:56:49;;;;;;;9.70;5.40;;;;;;;17.21;77.35;93449.28;5003467;28;20030;-78
2023/06/12 03:59:15;;;;;;;17.05;6.20;;;;;;;17.19;77.38;93440.78;5003714;28;20022;-77
2023/06/12 04:01:42;;;;;;;10.68;5.78;;;;;;;17.23;77.94;93449.69;5003439;28;20282;-77
2023/06/12 04:04:09;;;;;;;13.13;6.25;;;;;;;17.28;78.05;93445.88;5003474;28;20030;-77
2023/06/12 04:06:40;;;;;;;15.30;6.32;;;;;;;17.32;78.06;93444.81;5003141;28;20026;-77
2023/06/12 04:09:07;;;;;;;14.68;7.00;;;;;;;17.36;77.70;93450.22;5003287;28;20256;-77
2023/06/12 04:11:34;;;;;;;12.48;6.50;;;;;;;17.40;78.24;93457.22;4985957;28;20241;-77
2023/06/12 04:14:00;;;;;;;14.13;5.65;;;;;;;17.41;77.96;93456.06;5003592;28;20026;-77
2023/06/12 04:16:27;;;;;;;17.00;7.00;;;;;;;17.43;77.79;93453.03;5003466;28;20074;-77
2023/06/12 04:18:52;;;;;;;9.95;5.88;;;;;;;17.55;77.62;93463.56;5002903;28;20236;-77
2023/06/12 04:21:20;;;;;;;13.52;6.03;;;;;;;17.62;77.52;93462.88;5003087;28;20049;-77
2023/06/12 04:23:47;;;;;;;17.05;6.38;;;;;;;17.69;77.49;93462.97;4985814;28;20029;-77
2023/06/12 04:26:12;;;;;;;10.68;5.78;;;;;;;17.74;77.67;93451.84;5003194;28;20032;-77
2023/06/12 04:28:38;;;;;;;11.07;6.57;;;;;;;17.76;76.83;93467.66;5006637;28;20089;-77
2023/06/12 04:31:04;;;;;;;12.73;6.43;;;;;;;17.75;76.86;93458.81;5007252;28;20047;-77
2023/06/12 04:33:30;;;;;;;11.48;6.45;;;;;;;17.77;76.35;93453.81;5007256;28;20129;-77
2023/06/12 04:36:02;;;;;;;15.55;6.38;;;;;;;17.81;75.65;93464.66;5007276;28;20343;-77
2023/06/12 04:38:30;;;;;;;13.00;6.80;;;;;;;17.86;75.23;93455.47;5007303;28;20033;-77
2023/06/12 04:40:58;;;;;;;16.10;8.82;;;;;;;17.91;75.68;93450.53;5006995;28;20301;-77
2023/06/12 04:43:23;;;;;;;18.80;7.05;;;;;;;18.01;76.10;93449.88;5006998;28;20276;-77
2023/06/12 04:45:51;;;;;;;23.52;7.03;;;;;;;18.12;75.66;93441.13;4989714;28;20022;-76
2023/06/12 04:48:17;;;;;;;12.05;7.05;;;;;;;18.24;75.21;93444.31;5006808;28;20037;-78
2023/06/12 04:50:44;;;;;;;15.93;7.05;;;;;;;18.33;74.87;93441.28;5006965;28;20026;-77
2023/06/12 04:53:09;;;;;;;15.13;7.35;;;;;;;18.34;73.77;93442.84;5006788;28;20022;-81
2023/06/12 04:55:35;;;;;;;15.95;7.70;;;;;;;18.38;73.62;93442.91;5006870;28;20094;-80
2023/06/12 04:58:00;;;;;;;26.05;9.00;;;;;;;18.40;73.83;93446.75;5006870;28;20022;-81
2023/06/12 05:00:28;;;;;;;20.73;8.35;;;;;;;18.41;73.45;93442.13;5006887;28;20026;-81
2023/06/12 05:02:55;;;;;;;22.85;8.32;;;;;;;18.41;74.05;93434.03;5006455;28;20061;-80
2023/06/12 05:05:24;;;;;;;11.55;7.28;;;;;;;18.40;73.80;93451.41;5006890;28;20038;-79
2023/06/12 05:07:49;;;;;;;14.43;7.47;;;;;;;18.39;73.58;93449.81;5006569;28;20370;-77
2023/06/12 05:10:15;;;;;;;14.60;8.05;;;;;;;18.38;73.80;93443.66;5006553;28;20042;-78
2023/06/12 05:12:41;;;;;;;18.00;8.35;;;;;;;18.41;73.88;93459.09;5006304;28;20332;-79
2023/06/12 05:15:07;;;;;;;21.58;7.90;;;;;;;18.42;73.75;93452.56;5006496;28;20056;-79
2023/06/12 05:17:33;;;;;;;17.95;7.90;;;;;;;18.47;74.13;93451.44;5006385;28;20030;-79
2023/06/12 05:19:59;;;;;;;18.45;8.18;;;;;;;18.49;72.62;93456.47;5006660;28;20097;-79
2023/06/12 05:22:25;;;;;;;18.60;8.10;;;;;;;18.60;71.98;93455.41;5006303;28;20045;-79
2023/06/12 05:24:50;;;;;;;12.60;8.00;;;;;;;18.68;72.38;93461.63;5006265;28;20254;-79
2023/06/12 05:27:16;;;;;;;24.38;7.82;;;;;;;18.75;72.25;93466.31;5006287;28;20332;-79
2023/06/12 05:29:41;;;;;;;24.70;8.45;;;;;;;18.80;72.66;93463.28;5006302;28;20056;-79
2023/06/12 05:32:07;;;;;;;20.05;8.50;;;;;;;18.81;72.39;93467.56;5006068;28;20034;-79
2023/06/12 05:34:33;;;;;;;22.08;8.32;;;;;;;18.85;72.19;93465.66;5005961;28;20228;-80
2023/06/12 05:36:59;;;;;;;14.40;8.55;;;;;;;18.84;72.28;93461.41;4988946;28;20093;-81
2023/06/12 05:39:24;;;;;;;16.55;9.10;;;;;;;18.79;72.26;93473.31;5005604;28;20088;-75
2023/06/12 05:41:50;;;;;;;16.70;8.88;;;;;;;18.80;72.25;93468.69;5006013;28;20105;-80
2023/06/12 05:44:15;;;;;;;25.42;9.05;;;;;;;18.84;72.25;93472.19;5005995;28;20370;-79
2023/06/12 05:46:40;;;;;;;24.30;10.50;;;;;;;18.93;72.21;93472.66;5005764;28;20034;-79
2023/06/12 05:49:07;;;;;;;35.45;9.77;;;;;;;18.98;71.57;93477.69;4988661;28;20105;-79
2023/06/12 05:51:33;;;;;;;20.55;8.75;;;;;;;18.95;71.48;93473.06;5005885;28;20049;-78
2023/06/12 05:53:58;;;;;;;26.30;8.77;;;;;;;19.01;71.03;93479.66;4988518;28;20030;-78
2023/06/12 05:56:24;;;;;;;17.98;9.45;;;;;;;19.04;71.51;93478.91;5005967;28;20030;-77
2023/06/12 05:58:50;;;;;;;14.15;9.15;;;;;;;19.04;71.49;93478.13;5005668;28;20030;-79
2023/06/12 06:01:21;;;;;;;21.50;8.05;;;;;;;19.11;71.11;93478.19;4988123;28;20061;-79
2023/06/12 06:03:47;;;;;;;16.57;8.50;;;;;;;19.21;70.84;93477.47;4988185;28;20023;-78
2023/06/12 06:06:13;;;;;;;13.45;8.15;;;;;;;19.40;70.23;93475.66;5005647;28;20022;-80
2023/06/12 06:08:38;;;;;;;17.33;8.85;;;;;;;19.49;70.21;93475.31;5003707;28;20247;-79
2023/06/12 06:11:04;;;;;;;21.60;8.95;;;;;;;19.62;69.13;93469.19;5003501;28;20026;-81
2023/06/12 06:13:31;;;;;;;19.30;9.38;;;;;;;19.70;68.80;93463.81;5004638;28;20065;-80
2023/06/12 06:15:57;;;;;;;21.75;9.45;;;;;;;19.78;69.14;93468.91;5005335;28;20029;-79
2023/06/12 06:18:22;;;;;;;24.60;10.27;;;;;;;19.93;68.65;93471.66;4987783;28;20018;-77
2023/06/12 06:20:48;;;;;;;15.23;8.60;;;;;;;20.12;67.47;93475.97;5005226;28;20045;-77
2023/06/12 06:23:14;;;;;;;18.02;8.65;;;;;;;20.33;66.51;93472.53;5005294;28;20339;-77
2023/06/12 06:25:39;;;;;;;25.83;8.30;;;;;;;20.51;65.67;93472.56;5005281;28;20256;-77
2023/06/12 06:28:05;;;;;;;15.25;8.27;;;;;;;20.61;64.60;93474.53;4987865;28;20034;-77
2023/06/12 06:30:30;;;;;;;20.55;8.75;;;;;;;20.65;64.05;93478.00;5005069;28;20068;-77
2023/06/12 06:32:56;;;;;;;37.20;8.63;;;;;;;20.79;64.71;93471.81;5005323;28;20021;-77
2023/06/12 06:35:22;;;;;;;24.48;9.13;;;;;;;20.98;63.35;93468.72;5005113;28;20068;-77
2023/06/12 06:37:47;;;;;;;18.23;8.35;;;;;;;21.13;63.14;93480.31;5005055;28;20015;-77
2023/06/12 06:40:14;;;;;;;20.23;8.18;;;;;;;21.29;62.79;93465.56;5005192;28;20022;-77
2023/06/12 06:42:41;;;;;;;21.65;8.25;;;;;;;21.43;61.95;93477.22;5004834;28;20022;-77
2023/06/12 06:45:07;;;;;;;11.90;8.10;;;;;;;21.61;61.64;93471.72;4986836;28;20014;-77
2023/06/12 06:47:33;;;;;;;15.70;7.82;;;;;;;21.70;61.29;93476.75;5003968;28;20014;-77
2023/06/12 06:50:00;;;;;;;24.55;8.13;;;;;;;21.80;61.03;93478.63;5004054;28;20050;-77
2023/06/12 06:52:26;;;;;;;16.80;8.35;;;;;;;21.84;60.38;93476.69;5004720;28;20089;-77
2023/06/12 06:54:52;;;;;;;18.23;8.73;;;;;;;21.93;60.18;93468.09;5004683;28;20085;-76
2023/06/12 06:57:18;;;;;;;32.08;7.78;;;;;;;21.99;60.50;93468.47;5004612;28;20094;-76
2023/06/12 06:59:43;;;;;;;20.45;7.07;;;;;;;22.10;59.04;93468.41;5004708;28;20220;-77
2023/06/12 07:02:09;;;;;;;14.15;6.03;;;;;;;22.24;58.48;93463.72;5004252;28;20032;-77
2023/06/12 07:04:34;;;;;;;27.13;6.57;;;;;;;22.41;57.68;93458.59;5004646;28;20041;-77
2023/06/12 07:07:00;;;;;;;21.65;5.82;;;;;;;22.51;57.03;93468.59;5004460;28;20342;-77
2023/06/12 07:09:25;;;;;;;14.80;5.43;;;;;;;22.64;56.39;93466.19;5004426;28;20308;-77
2023/06/12 07:11:52;;;;;;;16.08;5.32;;;;;;;22.76;56.65;93468.41;5004155;28;20398;-77
2023/06/12 07:14:17;;;;;;;16.13;5.55;;;;;;;22.88;56.32;93469.09;5004471;28;20097;-78
2023/06/12 07:16:44;;;;;;;19.45;5.75;;;;;;;22.96;56.11;93463.22;5004193;28;20249;-77
2023/06/12 07:19:09;;;;;;;17.75;4.78;;;;;;;23.00;54.78;93466.69;5004265;28;20313;-77
2023/06/12 07:21:35;;;;;;;21.65;4.70;;;;;;;23.05;54.73;93465.50;5004095;28;20022;-77
2023/06/12 07:24:01;;;;;;;11.77;4.35;;;;;;;23.07;52.94;93459.66;4986889;28;20030;-77
2023/06/12 07:26:27;;;;;;;24.38;4.57;;;;;;;23.15;52.77;93463.84;5004082;28;20026;-77
2023/06/12 07:28:53;;;;;;;15.57;4.15;;;;;;;23.15;53.18;93463.84;5003821;28;20194;-77
2023/06/12 07:31:19;;;;;;;11.02;4.45;;;;;;;23.22;53.91;93461.84;4986699;28;20045;-77
2023/06/12 07:33:44;;;;;;;15.82;4.47;;;;;;;23.30;53.45;93459.81;5004221;28;20029;-77
2023/06/12 07:36:10;;;;;;;9.55;5.10;;;;;;;23.33;53.30;93467.19;5004017;28;20220;-77
2023/06/12 07:38:36;;;;;;;10.40;4.60;;;;;;;23.27;53.43;93470.75;5003528;28;20030;-78
2023/06/12 07:41:01;;;;;;;15.65;4.20;;;;;;;23.29;53.35;93466.44;5003694;28;20037;-77
2023/06/12 07:43:27;;;;;;;12.32;3.78;;;;;;;23.39;52.92;93468.28;5003699;28;20046;-77
2023/06/12 07:45:52;;;;;;;7.57;4.20;;;;;;;23.45;52.66;93471.34;5003844;28;20037;-77
2023/06/12 07:48:18;;;;;;;10.23;3.67;;;;;;;23.43;50.99;93471.75;5003751;28;20026;-77
2023/06/12 07:50:43;;;;;;;13.57;4.40;;;;;;;23.42;51.50;93472.13;5003713;28;20029;-77
2023/06/12 07:53:09;;;;;;;9.38;4.13;;;;;;;23.39;51.55;93471.00;5003642;28;20018;-77
2023/06/12 07:55:35;;;;;;;6.25;3.67;;;;;;;23.39;51.17;93479.16;5003462;28;20041;-77
2023/06/12 07:58:01;;;;;;;8.13;3.53;;;;;;;23.40;48.75;93475.25;5003680;28;20098;-77
2023/06/12 08:00:27;;;;;;;7.20;3.40;;;;;;;23.32;49.01;93471.06;5003600;28;20359;-77
2023/06/12 08:02:57;;;;;;;8.05;4.25;;;;;;;23.29;49.63;93468.41;5003706;28;20077;-77
2023/06/12 08:05:24;;;;;;;10.18;3.83;;;;;;;23.31;51.25;93474.19;5003531;28;20030;-77
2023/06/12 08:07:50;;;;;;;9.85;3.55;;;;;;;23.28;49.41;93478.47;5003277;28;20549;-77
2023/06/12 08:10:16;;;;;;;14.02;3.55;;;;;;;23.22;50.05;93471.94;4985950;28;20018;-77
2023/06/12 08:12:42;;;;;;;8.45;3.65;;;;;;;23.31;50.16;93472.25;5003482;28;20084;-77
2023/06/12 08:15:08;;;;;;;12.20;3.95;;;;;;;23.35;48.91;93472.97;5003541;28;20324;-77
2023/06/12 08:17:36;;;;;;;14.25;3.60;;;;;;;23.37;48.91;93467.91;5003573;28;20018;-77
2023/06/12 08:20:08;;;;;;;9.32;3.13;;;;;;;23.31;48.44;93472.25;5003553;28;20254;-77
2023/06/12 08:22:34;;;;;;;7.10;3.40;;;;;;;23.29;48.68;93469.16;4986011;28;20026;-77
2023/06/12 08:25:06;;;;;;;6.72;3.95;;;;;;;22.93;54.73;93469.44;5002593;28;20337;-77
2023/06/12 08:27:33;;;;;;;17.13;4.35;;;;;;;22.66;56.25;93480.13;5003355;28;20236;-77
2023/06/12 08:29:59;;;;;;;17.67;4.45;;;;;;;22.29;58.31;93478.81;5003439;28;20026;-77
2023/06/12 08:32:26;;;;;;;14.38;4.45;;;;;;;22.01;60.54;93472.34;5003355;28;20032;-77
2023/06/12 08:34:51;;;;;;;10.80;4.50;;;;;;;;;;5003181;28;20050;-77
2023/06/12 08:37:17;;;;;;;11.10;5.07;;;;;;;21.71;62.53;93480.97;4985969;28;20026;-77
2023/06/12 08:39:43;;;;;;;9.02;4.72;;;;;;;21.55;65.26;93477.94;5003417;28;20065;-77
2023/06/12 08:42:10;;;;;;;12.85;4.32;;;;;;;21.24;64.77;93481.06;5003204;28;20031;-77
2023/06/12 08:44:39;;;;;;;6.93;3.50;;;;;;;21.00;63.16;93477.25;4985887;28;20033;-77
2023/06/12 08:47:08;;;;;;;8.27;3.25;;;;;;;20.80;62.13;93484.19;4985994;28;20037;-77
2023/06/12 08:49:33;;;;;;;8.02;3.08;;;;;;;20.48;62.33;93487.63;5003234;28;20038;-77
2023/06/12 08:52:01;;;;;;;6.93;2.63;;;;;;;20.15;61.93;93481.38;5003168;28;20049;-77
2023/06/12 08:54:27;;;;;;;5.43;2.90;;;;;;;19.81;63.26;93475.47;5003441;28;20033;-77
2023/06/12 08:56:56;;;;;;;3.88;2.28;;;;;;;19.51;64.16;93479.16;5003180;28;20285;-77
2023/06/12 08:59:21;;;;;;;6.75;2.65;;;;;;;19.29;65.70;93478.28;5003108;28;20049;-77
2023/06/12 09:01:52;;;;;;;7.50;2.60;;;;;;;19.13;69.86;93481.28;5002919;28;20312;-77
2023/06/12 09:04:28;;;;;;;5.68;2.88;;;;;;;19.03;70.18;93477.38;5002994;28;20085;-77
2023/06/12 09:07:01;;;;;;;6.50;2.78;;;;;;;19.02;68.11;93478.50;5002834;28;20026;-88
2023/06/12 09:09:43;;;;;;;6.55;2.30;;;;;;;19.09;69.74;93477.78;4985809;28;20033;-76
2023/06/12 09:12:13;;;;;;;11.00;5.27;;;;;;;19.15;71.21;93480.91;5002795;28;20092;-76
2023/06/12 09:14:40;;;;;;;7.97;3.88;;;;;;;19.06;70.78;93472.34;5006232;28;20072;-76
2023/06/12 09:17:07;;;;;;;7.03;2.90;;;;;;;19.07;74.21;93465.78;5006639;28;20105;-76
2023/06/12 09:19:37;;;;;;;9.93;3.20;;;;;;;19.05;75.11;93471.59;5006545;28;20033;-76
2023/06/12 09:22:03;;;;;;;12.45;4.68;;;;;;;19.08;76.79;93473.53;5006620;28;20030;-76
2023/06/12 09:24:29;;;;;;;13.15;4.93;;;;;;;19.09;76.63;93468.88;5006575;28;20030;-76
2023/06/12 09:26:57;;;;;;;9.95;3.78;;;;;;;19.14;78.28;93471.25;5006375;28;20275;-75
2023/06/12 09:29:27;;;;;;;5.22;2.80;;;;;;;19.13;77.34;93475.88;5006446;28;20029;-75
2023/06/12 09:31:53;;;;;;;8.45;3.45;;;;;;;19.13;78.17;93469.69;5006258;28;20033;-75
2023/06/12 09:34:18;;;;;;;11.25;3.58;;;;;;;19.14;77.65;93463.16;5006416;28;20276;-75
2023/06/12 09:36:44;;;;;;;11.18;4.53;;;;;;;19.16;79.32;93458.16;5006335;28;20030;-75
2023/06/12 09:39:15;;;;;;;7.13;3.40;;;;;;;19.07;76.14;93453.09;5006326;28;20025;-76
2023/06/12 09:41:50;;;;;;;5.57;3.08;;;;;;;18.95;77.57;93454.16;5006074;28;20089;-76
2023/06/12 09:44:28;;;;;;;6.70;3.05;;;;;;;18.98;76.81;93448.00;5006250;28;20069;-76
2023/06/12 09:46:58;;;;;;;8.55;3.15;;;;;;;18.97;78.43;93442.97;5005875;28;20094;-77
2023/06/12 09:49:24;;;;;;;15.25;4.82;;;;;;;18.95;74.93;93437.16;4988699;28;20026;-76
2023/06/12 09:51:50;;;;;;;5.10;2.85;;;;;;;18.96;75.70;93439.50;5006148;28;20026;-76
2023/06/12 09:54:18;;;;;;;7.07;3.17;;;;;;;18.99;76.47;93437.97;5005913;28;20029;-76
2023/06/12 09:56:44;;;;;;;9.45;4.45;;;;;;;18.99;76.10;93433.34;5005919;28;20026;-76
2023/06/12 09:59:16;;;;;;;7.65;3.78;;;;;;;18.98;76.45;93437.19;5005902;28;20022;-76
2023/06/12 10:01:46;;;;;;;8.00;3.15;;;;;;;19.11;76.98;93434.97;5006080;28;20236;-76
2023/06/12 10:04:15;;;;;;;7.72;2.63;;;;;;;19.22;75.20;93441.19;5006049;28;20030;-87
2023/06/12 10:06:45;;;;;;;6.28;3.60;;;;;;;19.42;76.69;93438.22;4989391;28;20069;-86
2023/06/12 10:09:11;;;;;;;11.23;2.72;;;;;;;19.59;76.78;93436.75;4988850;28;20022;-86
2023/06/12 10:11:38;;;;;;;6.28;2.90;;;;;;;19.76;75.89;93435.28;5006435;28;20109;-86
2023/06/12 10:14:03;;;;;;;6.25;2.22;;;;;;;19.88;74.32;93431.47;4988759;28;20029;-85
2023/06/12 10:16:31;;;;;;;7.00;2.47;;;;;;;19.78;73.60;93433.75;5005943;28;20019;-83
2023/06/12 10:18:57;;;;;;;7.47;3.03;;;;;;;19.79;75.29;93438.00;5005970;28;20014;-83
2023/06/12 10:21:22;;;;;;;5.68;3.08;;;;;;;19.87;74.95;93435.34;5005861;28;20097;-83
2023/06/12 10:23:52;;;;;;;6.63;2.95;;;;;;;19.92;75.70;93429.53;5005482;28;20018;-84
2023/06/12 10:26:18;;;;;;;5.72;2.60;;;;;;;19.92;75.58;93429.53;4987583;28;20026;-83
2023/06/12 10:28:44;;;;;;;6.05;3.03;;;;;;;19.99;73.02;93424.94;5005649;28;20031;-82
2023/06/12 10:31:20;;;;;;;6.65;3.28;;;;;;;20.10;70.87;93422.22;5005498;28;20018;-82
2023/06/12 10:34:02;;;;;;;7.97;3.78;;;;;;;20.27;70.28;93414.53;5005597;28;20324;-84
2023/06/12 10:36:39;;;;;;;8.27;4.00;;;;;;;20.34;68.88;93417.25;5006058;28;20027;-85
2023/06/12 10:39:13;;;;;;;12.93;4.47;;;;;;;20.42;69.92;93413.38;4989554;28;20011;-84
2023/06/12 10:41:50;;;;;;;6.47;2.95;;;;;;;20.47;68.96;93407.56;5007999;28;20018;-85
2023/06/12 10:44:37;;;;;;;11.07;3.08;;;;;;;20.54;69.09;93413.00;4991439;28;20022;-84
2023/06/12 10:47:04;;;;;;;7.43;3.50;;;;;;;20.56;70.54;93409.91;4991329;28;20022;-84
2023/06/12 10:49:29;;;;;;;5.32;3.20;;;;;;;20.63;70.49;93416.13;5009204;28;20022;-84
2023/06/12 10:51:58;;;;;;;6.00;3.55;;;;;;;20.59;69.73;93414.56;5009768;28;20090;-84
2023/06/12 10:54:27;;;;;;;6.20;3.30;;;;;;;20.42;71.48;93413.38;5010757;28;20026;-84
2023/06/12 10:56:58;;;;;;;6.47;3.42;;;;;;;20.22;70.89;93402.94;5007118;28;20033;-83
2023/06/12 10:59:36;;;;;;;9.65;4.03;;;;;;;20.15;72.09;93405.63;5006793;28;20027;-90
2023/06/12 11:02:04;;;;;;;9.20;3.83;;;;;;;20.16;70.30;93401.75;5009251;28;20014;-86
2023/06/12 11:04:40;;;;;;;7.63;3.63;;;;;;;20.24;73.59;93400.59;4992296;28;20227;-84
2023/06/12 11:07:06;;;;;;;6.10;3.90;;;;;;;20.43;75.25;93398.69;5006951;28;20026;-83
2023/06/12 11:09:41;;;;;;;5.55;3.50;;;;;;;20.49;70.79;93389.00;5007088;28;20037;-83
2023/06/12 11:12:08;;;;;;;11.13;4.05;;;;;;;20.58;70.36;93391.34;5006571;28;20248;-84
2023/06/12 11:14:33;;;;;;;5.07;2.72;;;;;;;20.70;64.49;93392.91;5008280;28;20026;-85
2023/06/12 11:16:59;;;;;;;6.07;2.97;;;;;;;20.84;66.97;93387.47;5008340;28;20312;-83
2023/06/12 11:19:28;;;;;;;5.38;2.80;;;;;;;21.00;63.48;93385.13;5006709;28;20085;-83
2023/06/12 11:21:56;;;;;;;7.07;3.42;;;;;;;21.22;64.36;93380.41;5005759;28;20033;-84
2023/06/12 11:24:22;;;;;;;6.78;2.90;;;;;;;21.51;63.04;93387.69;5010956;28;20022;-87
2023/06/12 11:26:52;;;;;;;6.82;2.90;;;;;;;21.88;60.48;93387.16;4993380;28;20025;-86
2023/06/12 11:29:19;;;;;;;12.30;3.72;;;;;;;22.19;60.78;93385.41;5009483;28;20036;-86